Weather forecasts are calculated to a 100 metre elevation grid, providing ultimate accuracy for high elevation routes. See the “severe weather” column for any noteworthy conditions.
For use of the snow symbols: HWC = high water content (wet snow). MWC = moderate water content. NWC = low water content (powder type). Confidence of snow accumulation is increased during incidence of NWC.


Time. Apparent Temperature Rain Cloud Dir Avg. Wind Gust. Wind Snow Accum. Chance of settle. Freezing height(beta) Dew Point Severe Weather
Thu 08th 11:00 15.7°C 0.0 mm 89% 9 mph 15 mph 0.00 cm % 2,095m 10.7°C
12:00 15.8°C 0.0 mm 89% 10 mph 16 mph 0.00 cm % 2,110m 10.0°C
13:00 16.1°C 0.0 mm 90% 9 mph 15 mph 0.00 cm % 1,613m 9.3°C
14:00 16.9°C 0.0 mm 77% 11 mph 18 mph 0.00 cm % 1,691m 8.9°C
15:00 17.1°C 0.0 mm 73% 12 mph 19 mph 0.00 cm % 1,712m 8.5°C
16:00 16.8°C 0.0 mm 74% 12 mph 19 mph 0.00 cm % 1,676m 8.8°C
17:00 16.0°C 0.0 mm 75% 12 mph 19 mph 0.00 cm % 1,604m 9.2°C
18:00 15.4°C 0.0 mm 77% 10 mph 16 mph 0.00 cm % 2,047m 10.0°C
19:00 14.3°C 0.0 mm 87% 8 mph 13 mph 0.00 cm % 1,912m 10.1°C
20:00 12.9°C 0.0 mm 79% 5 mph 8 mph 0.00 cm % 2,148m 10.3°C
21:00 11.7°C mist/fog in vicinity 0.0 mm 79% 4 mph 6 mph 0.00 cm % 2,330m 9.9°C poor vis, mist
22:00 11.1°C mist/fog in vicinity 0.0 mm 80% 4 mph 6 mph 0.00 cm % 2,222m 9.7°C poor vis, mist
23:00 10.6°C mist/fog 0.0 mm 74% 3 mph 5 mph 0.00 cm % 2,128m 9.6°C poor vis, mist
Fri 09th 00:00 10.3°C fog in vicinity 0.0 mm 68% 2 mph 4 mph 0.00 cm % 2,058m 9.5°C poor vis, fog
01:00 10.0°C fog in vicinity 0.0 mm 54% 3 mph 4 mph 0.00 cm % 2,004m 9.2°C poor vis, fog
02:00 9.9°C fog in vicinity 0.0 mm 72% 2 mph 3 mph 0.00 cm % 1,986m 9.1°C poor vis, fog
03:00 9.8°C fog in vicinity 0.0 mm 77% 2 mph 3 mph 0.00 cm % 1,952m 9.2°C poor vis, fog
04:00 9.5°C fog in vicinity 0.0 mm 74% 2 mph 3 mph 0.00 cm % 1,894m 8.9°C poor vis, fog
05:00 10.2°C mist/fog 0.0 mm 70% 2 mph 3 mph 0.00 cm % 2,046m 9.2°C poor vis, mist
06:00 11.7°C mist/fog in vicinity 0.0 mm 64% 2 mph 3 mph 0.00 cm % 2,338m 9.7°C poor vis, mist
07:00 13.0°C mist/fog in vicinity 0.0 mm 69% 2 mph 4 mph 0.00 cm % 2,162m 9.8°C poor vis, mist
08:00 14.5°C mist/fog in vicinity 0.0 mm 70% 3 mph 5 mph 0.00 cm % 1,928m 9.9°C poor vis, mist
09:00 15.8°C 0.0 mm 61% 3 mph 5 mph 0.00 cm % 2,103m 10.2°C
10:00 16.4°C rainfall in vicinity 0.1 mm 59% 4 mph 7 mph 0.00 cm % 1,642m 9.8°C
11:00 17.2°C 0.0 mm 59% 6 mph 9 mph 0.00 cm % 1,716m 9.8°C
12:00 17.8°C 0.0 mm 61% 7 mph 11 mph 0.00 cm % 1,776m 9.8°C
13:00 17.8°C 0.0 mm 99% 8 mph 13 mph 0.00 cm % 1,779m 9.8°C
14:00 17.9°C 0.0 mm 100% 8 mph 13 mph 0.00 cm % 1,788m 10.1°C
15:00 18.3°C 0.0 mm 99% 7 mph 11 mph 0.00 cm % 1,834m 10.1°C
16:00 18.1°C rainfall in vicinity 0.2 mm 98% 7 mph 11 mph 0.00 cm % 1,806m 10.5°C
17:00 17.3°C rainfall in vicinity 0.2 mm 98% 7 mph 11 mph 0.00 cm % 1,726m 10.7°C
18:00 16.1°C light rain 0.6 mm 98% 7 mph 11 mph 0.00 cm % 2,690m 12.3°C
19:00 15.1°C light rain 0.5 mm 100% 5 mph 8 mph 0.00 cm % 2,508m 12.9°C
20:00 13.8°C rainfall in vicinity 0.2 mm 100% 5 mph 8 mph 0.00 cm % 2,754m 12.2°C
21:00 12.8°C mist/fog in vicinity 0.0 mm 100% 5 mph 7 mph 0.00 cm % 2,564m 11.6°C poor vis, mist
22:00 12.3°C mist/fog in vicinity 0.0 mm 100% 4 mph 7 mph 0.00 cm % 2,460m 11.3°C poor vis, mist
23:00 12.0°C mist/fog in vicinity 0.0 mm 100% 4 mph 6 mph 0.00 cm % 2,398m 11.0°C poor vis, mist
Sat 10th 00:00 11.8°C mist/fog in vicinity 0.0 mm 100% 4 mph 6 mph 0.00 cm % 2,356m 10.8°C poor vis, mist
01:00 11.5°C mist/fog in vicinity 0.0 mm 100% 4 mph 7 mph 0.00 cm % 2,306m 10.5°C poor vis, mist
02:00 11.3°C light rain 0.4 mm 100% 3 mph 4 mph 0.00 cm % 2,252m 10.5°C
03:00 11.2°C rainfall in vicinity 0.2 mm 100% 3 mph 5 mph 0.00 cm % 2,238m 10.4°C
04:00 11.0°C light rain 0.6 mm 100% 1 mph 1 mph 0.00 cm % 2,192m 10.4°C
05:00 11.5°C light rain 0.8 mm 100% 1 mph 2 mph 0.00 cm % 2,290m 10.9°C
06:00 11.8°C light rain 0.7 mm 100% 2 mph 4 mph 0.00 cm % 2,364m 11.0°C
07:00 12.4°C light rain 0.4 mm 100% 1 mph 2 mph 0.00 cm % 2,486m 11.4°C
08:00 13.2°C rainfall in vicinity 0.2 mm 100% 2 mph 3 mph 0.00 cm % 2,636m 11.6°C
09:00 13.7°C rainfall in vicinity 0.2 mm 100% 2 mph 3 mph 0.00 cm % 2,275m 11.5°C
10:00 14.2°C light rain 0.5 mm 100% 2 mph 3 mph 0.00 cm % 2,369m 11.6°C
11:00 14.5°C light rain 0.6 mm 100% 2 mph 4 mph 0.00 cm % 2,408m 11.7°C
12:00 15.2°C light rain 1.0 mm 100% 1 mph 2 mph 0.00 cm % 2,530m 12.0°C
13:00 16.3°C moderate rain 1.4 mm 92% 2 mph 3 mph 0.00 cm % 2,712m 12.5°C
14:00 16.4°C moderate rain 1.7 mm 92% 4 mph 6 mph 0.00 cm % 2,738m 12.6°C
15:00 16.4°C moderate rain 1.8 mm 94% 6 mph 10 mph 0.00 cm % 2,733m 12.6°C
16:00 16.4°C moderate rain 1.4 mm 95% 7 mph 12 mph 0.00 cm % 2,735m 12.8°C
17:00 16.3°C light rain 1.0 mm 89% 7 mph 12 mph 0.00 cm % 2,717m 12.5°C
18:00 15.6°C light rain 0.7 mm 87% 8 mph 12 mph 0.00 cm % 2,596m 12.6°C
19:00 14.8°C light rain 0.4 mm 87% 7 mph 11 mph 0.00 cm % 2,467m 12.6°C
20:00 13.6°C rainfall in vicinity 0.1 mm 81% 5 mph 8 mph 0.00 cm % 2,718m 12.0°C
21:00 12.7°C mist/fog in vicinity 0.0 mm 80% 4 mph 7 mph 0.00 cm % 2,542m 11.5°C poor vis, mist
22:00 12.2°C mist/fog in vicinity 0.0 mm 79% 3 mph 6 mph 0.00 cm % 2,438m 11.2°C poor vis, mist
23:00 12.1°C mist/fog in vicinity 0.0 mm 82% 3 mph 6 mph 0.00 cm % 2,412m 10.9°C poor vis, mist
Sun 11th 00:00 11.9°C mist/fog 0.0 mm 84% 2 mph 4 mph 0.00 cm % 2,382m 10.5°C poor vis, mist
01:00 11.6°C mist/fog in vicinity 0.0 mm 100% 3 mph 5 mph 0.00 cm % 2,314m 10.2°C poor vis, mist
02:00 11.4°C mist/fog 0.0 mm 99% 3 mph 4 mph 0.00 cm % 2,272m 10.0°C poor vis, mist
03:00 10.9°C mist/fog 0.0 mm 96% 2 mph 4 mph 0.00 cm % 2,172m 9.7°C poor vis, mist
04:00 10.0°C mist/fog in vicinity 0.0 mm 89% 3 mph 5 mph 0.00 cm % 2,000m 9.0°C poor vis, mist
05:00 10.5°C mist/fog in vicinity 0.0 mm 92% 3 mph 6 mph 0.00 cm % 2,104m 9.3°C poor vis, mist
06:00 11.6°C mist/fog in vicinity 0.0 mm 93% 2 mph 4 mph 0.00 cm % 2,316m 9.6°C poor vis, mist
07:00 12.8°C 0.0 mm 72% 4 mph 7 mph 0.00 cm % 2,135m 9.6°C
08:00 14.1°C 0.0 mm 84% 6 mph 10 mph 0.00 cm % 1,876m 9.9°C
09:00 15.0°C 0.0 mm 90% 8 mph 12 mph 0.00 cm % 1,999m 9.8°C
10:00 15.9°C 0.0 mm 92% 9 mph 14 mph 0.00 cm % 1,588m 9.7°C
11:00 16.7°C 0.0 mm 94% 10 mph 17 mph 0.00 cm % 1,672m 9.7°C
12:00 16.8°C 0.0 mm 95% 11 mph 18 mph 0.00 cm % 1,681m 10.0°C
13:00 16.6°C rainfall in vicinity 0.2 mm 100% 12 mph 19 mph 0.00 cm % 1,664m 10.2°C
14:00 17.3°C rainfall in vicinity 0.2 mm 100% 11 mph 18 mph 0.00 cm % 1,728m 10.3°C
15:00 17.1°C 0.0 mm 100% 11 mph 18 mph 0.00 cm % 1,705m 10.1°C
16:00 16.7°C rainfall in vicinity 0.2 mm 100% 11 mph 18 mph 0.00 cm % 2,230m 10.9°C
17:00 16.1°C light rain 0.4 mm 100% 11 mph 17 mph 0.00 cm % 2,140m 11.3°C
18:00 15.3°C light rain 0.7 mm 100% 8 mph 13 mph 0.00 cm % 2,546m 11.7°C
19:00 14.4°C light rain 0.8 mm 100% 6 mph 10 mph 0.00 cm % 2,400m 12.2°C
20:00 13.2°C light rain 0.5 mm 100% 5 mph 8 mph 0.00 cm % 2,642m 11.6°C
21:00 12.4°C rainfall in vicinity 0.3 mm 100% 5 mph 8 mph 0.00 cm % 2,476m 11.2°C
22:00 12.1°C 0.0 mm 100% 6 mph 9 mph 0.00 cm % 2,420m 11.1°C
23:00 12.0°C rainfall in vicinity 0.1 mm 100% 5 mph 9 mph 0.00 cm % 2,408m 11.4°C
Mon 12th 00:00 12.0°C rainfall in vicinity 0.2 mm 100% 5 mph 8 mph 0.00 cm % 2,390m 11.6°C
01:00 11.8°C light rain 0.3 mm 100% 4 mph 7 mph 0.00 cm % 2,350m 11.4°C
02:00 11.8°C light rain 0.5 mm 100% 3 mph 5 mph 0.00 cm % 2,352m 11.6°C
03:00 11.8°C light rain 0.5 mm 100% 3 mph 4 mph 0.00 cm % 2,364m 11.6°C
04:00 11.7°C light rain 0.4 mm 100% 3 mph 5 mph 0.00 cm % 2,348m 11.5°C
05:00 11.8°C rainfall in vicinity 0.3 mm 100% 4 mph 6 mph 0.00 cm % 2,356m 11.6°C
06:00 11.8°C light rain 0.3 mm 100% 5 mph 8 mph 0.00 cm % 2,358m 11.4°C
07:00 11.9°C light rain 0.4 mm 100% 5 mph 9 mph 0.00 cm % 2,370m 11.5°C
08:00 12.1°C light rain 0.4 mm 100% 6 mph 10 mph 0.00 cm % 2,410m 11.5°C
09:00 12.1°C light rain 0.5 mm 100% 7 mph 11 mph 0.00 cm % 2,426m 11.3°C
10:00 12.3°C light rain 0.5 mm 100% 8 mph 12 mph 0.00 cm % 2,468m 11.3°C